createdAt,value
2022-11-28T00:10:41.121Z,11.0
2022-11-28T00:30:40.851Z,7.1
2022-11-28T00:50:40.599Z,11.0
2022-11-28T01:10:40.304Z,9.9
2022-11-28T01:30:40.056Z,11.6
2022-11-28T01:50:39.761Z,11.2
2022-11-28T02:10:39.503Z,8.1
2022-11-28T02:30:39.229Z,13.0
2022-11-28T02:50:38.926Z,10.5
2022-11-28T03:10:38.681Z,11.0
2022-11-28T03:30:38.428Z,7.6
2022-11-28T03:50:38.104Z,8.5
2022-11-28T04:10:37.847Z,10.4
2022-11-28T04:30:37.551Z,7.5
2022-11-28T04:50:37.337Z,7.2
2022-11-28T05:10:37.059Z,10.1
2022-11-28T05:30:36.743Z,10.0
2022-11-28T05:50:39.886Z,6.3
2022-11-28T06:10:36.197Z,6.6
2022-11-28T06:30:35.929Z,10.2
2022-11-28T06:50:35.653Z,8.0
2022-11-28T07:10:35.438Z,7.9
2022-11-28T07:30:35.092Z,8.1
2022-11-28T07:50:34.911Z,5.1
2022-11-28T08:10:34.564Z,9.8
2022-11-28T08:30:34.351Z,15.3
2022-11-28T08:50:34.006Z,14.4
2022-11-28T09:10:33.746Z,15.7
2022-11-28T09:30:33.559Z,16.1
2022-11-28T09:50:34.183Z,13.3
2022-11-28T10:10:32.912Z,15.5
2022-11-28T10:30:32.663Z,15.5
2022-11-28T10:50:32.627Z,12.3
2022-11-28T11:10:32.105Z,13.1
2022-11-28T11:30:31.892Z,16.5
2022-11-28T11:50:31.570Z,11.9
2022-11-28T12:23:04.819Z,14.50
2022-11-28T12:43:04.477Z,14.30
2022-11-28T13:03:05.257Z,13.40
2022-11-28T13:23:04.086Z,19.60
2022-11-28T13:43:08.013Z,16.40
2022-11-28T14:03:03.433Z,12.10
2022-11-28T14:23:03.081Z,14.30
2022-11-28T14:43:02.801Z,16.70
2022-11-28T15:03:02.557Z,17.60
2022-11-28T15:23:02.233Z,16.50
2022-11-28T15:43:01.949Z,14.60
2022-11-28T16:03:01.686Z,15.20
2022-11-28T16:23:01.390Z,18.10
2022-11-28T16:43:01.173Z,16.00
2022-11-28T17:03:00.814Z,17.50
2022-11-28T17:23:00.533Z,20.10
2022-11-28T17:43:01.156Z,18.30
2022-11-28T18:02:59.988Z,22.40
2022-11-28T18:22:59.742Z,21.90
2022-11-28T18:42:59.449Z,18.70
2022-11-28T19:02:59.188Z,19.30
2022-11-28T19:22:58.936Z,16.40
2022-11-28T19:42:58.679Z,24.40
2022-11-28T20:02:58.363Z,18.40
2022-11-28T20:22:58.079Z,21.70
2022-11-28T20:42:57.823Z,15.90
2022-11-28T21:02:57.577Z,18.30
2022-11-28T21:22:57.315Z,18.20
2022-11-28T21:42:57.014Z,20.70
2022-11-28T22:03:16.425Z,25.70
2022-11-28T22:22:56.491Z,21.50
2022-11-28T22:42:56.218Z,26.10
2022-11-28T23:02:55.982Z,18.00
2022-11-28T23:22:55.658Z,18.80
2022-11-28T23:42:55.417Z,22.30
